Thunder radar more information blitzortung!


Radar de pluja more information rain snow radar


Visita la nostra xarxa de llocs de meteo:

Template documentation
and downloads

And another site



No particular awareness of the weather is required.    There are no Weather-warnings

Pagina Historial Weather Underground text

Diari Resum Setembre 20, 2017 Unitats:  Tant    Imperial   Mètric
« Previous Dia
SegĂźent Dia »
Diari Setmana Mensual Anual Personalitzada
  Maxima: Minima: Media:
Temperatura: 73.2 °F /  22.9 °C 53.1 °F /  11.7 °C 65.1 °F /  18.4 °C
Punt de rosada: 54.9 °F /  12.7 °C 44.1 °F /  6.7 °C 48.9 °F /  9.4 °C
Humitat: 76 % 44 % 57 %
Wind Speed: 10.7 mph /  17.2 km/h - 3.6 mph /  5.8 km/h
RĂ fegues de vent: 10.7 mph /  17.2 km/h - -
Vent:- - ESE
Pression baro: 30.2 in /  1020.9 hPa 30 in /  1016.8 hPa -
Precipitacions: 0 in /  0.0 mm    
Historical Graphs
 
 
Dades de taula per Setembre 20, 2017
Temps Temperatura Punt de rosada Pression baro Vent Wind Speed RĂ fegues de vent Humitat Rainfall Rate (Hourly)
00:00 55.8 °F /  13.2 °C 47.7 °F /  8.7 °C 30.1 in /  1019.9 hPa Calm   2 mph /  3.2 km/h 74 % 0 in /  0.0 mm
00:02 61 °F /  16.1 °C 48.7 °F /  9.3 °C 30.1 in /  1019.9 hPa Calm     64 % 0 in /  0.0 mm
00:10 55.8 °F /  13.2 °C 47.7 °F /  8.7 °C 30.1 in /  1019.9 hPa NNW 1 mph /  1.6 km/h 3 mph /  4.8 km/h 74 % 0 in /  0.0 mm
00:20 55.4 °F /  13.0 °C 47.1 °F /  8.4 °C 30.1 in /  1019.9 hPa NW 1 mph /  1.6 km/h 2 mph /  3.2 km/h 74 % 0 in /  0.0 mm
00:30 55.9 °F /  13.3 °C 47.5 °F /  8.6 °C 30.1 in /  1019.9 hPa NNE 5 mph /  8.0 km/h 5 mph /  8.0 km/h 73 % 0 in /  0.0 mm
00:40 56.7 °F /  13.7 °C 47.7 °F /  8.7 °C 30.1 in /  1019.9 hPa NNE 5 mph /  8.0 km/h 7 mph /  11.3 km/h 72 % 0 in /  0.0 mm
00:50 56.3 °F /  13.5 °C 47.5 °F /  8.6 °C 30.1 in /  1019.9 hPa NNE 3 mph /  4.8 km/h 5 mph /  8.0 km/h 72 % 0 in /  0.0 mm
01:00 56.1 °F /  13.4 °C 47.7 °F /  8.7 °C 30.1 in /  1018.8 hPa NNE 6 mph /  9.7 km/h 6 mph /  9.7 km/h 73 % 0 in /  0.0 mm
01:10 55.8 °F /  13.2 °C 47.1 °F /  8.4 °C 30.1 in /  1019.9 hPa NNE 2 mph /  3.2 km/h 5 mph /  8.0 km/h 73 % 0 in /  0.0 mm
01:20 55.2 °F /  12.9 °C 46.8 °F /  8.2 °C 30.1 in /  1019.9 hPa NNE 3 mph /  4.8 km/h 4 mph /  6.4 km/h 73 % 0 in /  0.0 mm
01:30 54.9 °F /  12.7 °C 46.4 °F /  8.0 °C 30.1 in /  1019.9 hPa Calm   4 mph /  6.4 km/h 73 % 0 in /  0.0 mm
01:40 54.3 °F /  12.4 °C 46.2 °F /  7.9 °C 30.1 in /  1019.9 hPa Calm   1 mph /  1.6 km/h 74 % 0 in /  0.0 mm
01:50 53.8 °F /  12.1 °C 45.7 °F /  7.6 °C 30.1 in /  1019.9 hPa Calm   2 mph /  3.2 km/h 74 % 0 in /  0.0 mm
02:00 53.4 °F /  11.9 °C 45.3 °F /  7.4 °C 30.1 in /  1019.9 hPa SW 2 mph /  3.2 km/h 2 mph /  3.2 km/h 74 % 0 in /  0.0 mm
02:10 53.8 °F /  12.1 °C 46 °F /  7.8 °C 30.1 in /  1019.9 hPa WSW 1 mph /  1.6 km/h 1 mph /  1.6 km/h 75 % 0 in /  0.0 mm
02:20 53.8 °F /  12.1 °C 46.4 °F /  8.0 °C 30.1 in /  1019.9 hPa Calm   1 mph /  1.6 km/h 76 % 0 in /  0.0 mm
02:30 53.6 °F /  12.0 °C 46.2 °F /  7.9 °C 30.2 in /  1020.9 hPa Calm     76 % 0 in /  0.0 mm
02:40 53.4 °F /  11.9 °C 46 °F /  7.8 °C 30.1 in /  1018.8 hPa Calm   1 mph /  1.6 km/h 76 % 0 in /  0.0 mm
02:50 53.2 °F /  11.8 °C 45.9 °F /  7.7 °C 30.1 in /  1018.8 hPa Calm   1 mph /  1.6 km/h 76 % 0 in /  0.0 mm
03:00 53.1 °F /  11.7 °C 45.3 °F /  7.4 °C 30.1 in /  1019.9 hPa Calm   2 mph /  3.2 km/h 75 % 0 in /  0.0 mm
03:10 53.1 °F /  11.7 °C 45.3 °F /  7.4 °C 30.1 in /  1018.8 hPa Calm   1 mph /  1.6 km/h 75 % 0 in /  0.0 mm
03:20 54 °F /  12.2 °C 45.9 °F /  7.7 °C 30.1 in /  1018.8 hPa Calm     74 % 0 in /  0.0 mm
03:30 55.4 °F /  13.0 °C 47.7 °F /  8.7 °C 30.1 in /  1019.9 hPa SW 1 mph /  1.6 km/h 2 mph /  3.2 km/h 75 % 0 in /  0.0 mm
03:40 55.2 °F /  12.9 °C 46.8 °F /  8.2 °C 30.1 in /  1019.9 hPa ENE 1 mph /  1.6 km/h 3 mph /  4.8 km/h 73 % 0 in /  0.0 mm
03:50 56.1 °F /  13.4 °C 47.1 °F /  8.4 °C 30.1 in /  1019.9 hPa NE 3 mph /  4.8 km/h 4 mph /  6.4 km/h 72 % 0 in /  0.0 mm
04:00 57.2 °F /  14.0 °C 47.5 °F /  8.6 °C 30.2 in /  1020.9 hPa NNE 1 mph /  1.6 km/h 3 mph /  4.8 km/h 70 % 0 in /  0.0 mm
04:10 58.5 °F /  14.7 °C 47.8 °F /  8.8 °C 30.1 in /  1019.9 hPa NNE 1 mph /  1.6 km/h 2 mph /  3.2 km/h 68 % 0 in /  0.0 mm
04:20 58.1 °F /  14.5 °C 46.8 °F /  8.2 °C 30.1 in /  1019.9 hPa North 1 mph /  1.6 km/h 2 mph /  3.2 km/h 66 % 0 in /  0.0 mm
04:30 57.9 °F /  14.4 °C 46.6 °F /  8.1 °C 30.1 in /  1019.9 hPa NNE 3 mph /  4.8 km/h 4 mph /  6.4 km/h 66 % 0 in /  0.0 mm
04:40 57.6 °F /  14.2 °C 45.5 °F /  7.5 °C 30.1 in /  1019.9 hPa NNE 3 mph /  4.8 km/h 4 mph /  6.4 km/h 64 % 0 in /  0.0 mm
04:50 58.5 °F /  14.7 °C 46.8 °F /  8.2 °C 30.1 in /  1019.9 hPa Calm   4 mph /  6.4 km/h 65 % 0 in /  0.0 mm
05:00 60.1 °F /  15.6 °C 48.4 °F /  9.1 °C 30.1 in /  1019.9 hPa NE 2 mph /  3.2 km/h 3 mph /  4.8 km/h 65 % 0 in /  0.0 mm
05:10 60.6 °F /  15.9 °C 48.4 °F /  9.1 °C 30.1 in /  1019.9 hPa NE 2 mph /  3.2 km/h 3 mph /  4.8 km/h 64 % 0 in /  0.0 mm
05:20 61.5 °F /  16.4 °C 48.7 °F /  9.3 °C 30.1 in /  1019.9 hPa NE 2 mph /  3.2 km/h 4 mph /  6.4 km/h 63 % 0 in /  0.0 mm
10:30 63.5 °F /  17.5 °C 49.5 °F /  9.7 °C 30.1 in /  1019.9 hPa NNE 3.5 mph /  5.6 km/h 3.5 mph /  5.6 km/h 60 % 0 in /  0.0 mm
10:35 63.3 °F /  17.4 °C 48.7 °F /  9.3 °C 30.1 in /  1019.9 hPa NNE 4.6 mph /  7.4 km/h 4.6 mph /  7.4 km/h 59 % 0 in /  0.0 mm
10:40 63.9 °F /  17.7 °C 49.3 °F /  9.6 °C 30.1 in /  1019.9 hPa ENE 3.5 mph /  5.6 km/h 3.5 mph /  5.6 km/h 59 % 0 in /  0.0 mm
10:45 64.8 °F /  18.2 °C 50.2 °F /  10.1 °C 30.1 in /  1019.9 hPa NNE 4 mph /  6.4 km/h 4 mph /  6.4 km/h 59 % 0 in /  0.0 mm
10:50 65.1 °F /  18.4 °C 50 °F /  10.0 °C 30.1 in /  1019.9 hPa NNE 4.9 mph /  7.9 km/h 4.9 mph /  7.9 km/h 58 % 0 in /  0.0 mm
10:55 64.9 °F /  18.3 °C 49.3 °F /  9.6 °C 30.1 in /  1019.9 hPa NNE 4.6 mph /  7.4 km/h 4.6 mph /  7.4 km/h 57 % 0 in /  0.0 mm
11:00 64.9 °F /  18.3 °C 49.3 °F /  9.6 °C 30.1 in /  1019.9 hPa NNE 4.6 mph /  7.4 km/h 4.6 mph /  7.4 km/h 57 % 0 in /  0.0 mm
11:05 65.5 °F /  18.6 °C 50.4 °F /  10.2 °C 30.2 in /  1020.9 hPa NNE 4.6 mph /  7.4 km/h 4.6 mph /  7.4 km/h 58 % 0 in /  0.0 mm
11:10 65.7 °F /  18.7 °C 50.5 °F /  10.3 °C 30.2 in /  1020.9 hPa ESE 5.8 mph /  9.3 km/h 5.8 mph /  9.3 km/h 58 % 0 in /  0.0 mm
11:15 65.5 °F /  18.6 °C 50.4 °F /  10.2 °C 30.2 in /  1020.9 hPa ESE 4.3 mph /  6.9 km/h 4.3 mph /  6.9 km/h 58 % 0 in /  0.0 mm
11:20 65.5 °F /  18.6 °C 50.4 °F /  10.2 °C 30.1 in /  1019.9 hPa ENE 5.8 mph /  9.3 km/h 5.8 mph /  9.3 km/h 58 % 0 in /  0.0 mm
11:25 66.6 °F /  19.2 °C 51.3 °F /  10.7 °C 30.1 in /  1019.9 hPa NNE 2.4 mph /  3.9 km/h 2.4 mph /  3.9 km/h 58 % 0 in /  0.0 mm
11:30 66.9 °F /  19.4 °C 51.6 °F /  10.9 °C 30.1 in /  1019.9 hPa East 5.8 mph /  9.3 km/h 5.8 mph /  9.3 km/h 58 % 0 in /  0.0 mm
11:35 66.6 °F /  19.2 °C 51.8 °F /  11.0 °C 30.1 in /  1019.9 hPa ENE 5.4 mph /  8.7 km/h 5.4 mph /  8.7 km/h 59 % 0 in /  0.0 mm
11:40 66.9 °F /  19.4 °C 52.2 °F /  11.2 °C 30.1 in /  1019.9 hPa NNE 3.5 mph /  5.6 km/h 3.8 mph /  6.1 km/h 59 % 0 in /  0.0 mm
11:45 67.1 °F /  19.5 °C 52.7 °F /  11.5 °C 30.1 in /  1019.9 hPa NNE 5.9 mph /  9.5 km/h 5.9 mph /  9.5 km/h 60 % 0 in /  0.0 mm
11:50 67.3 °F /  19.6 °C 52.5 °F /  11.4 °C 30.1 in /  1019.9 hPa SSE 5.8 mph /  9.3 km/h 5.8 mph /  9.3 km/h 59 % 0 in /  0.0 mm
11:55 68 °F /  20.0 °C 53.1 °F /  11.7 °C 30.1 in /  1019.9 hPa ESE 5.8 mph /  9.3 km/h 5.8 mph /  9.3 km/h 59 % 0 in /  0.0 mm
12:00 68 °F /  20.0 °C 52.7 °F /  11.5 °C 30.1 in /  1019.9 hPa NNE 6.9 mph /  11.1 km/h 6.9 mph /  11.1 km/h 58 % 0 in /  0.0 mm
12:05 68 °F /  20.0 °C 53.1 °F /  11.7 °C 30.1 in /  1019.9 hPa East 10.4 mph /  16.7 km/h 10.4 mph /  16.7 km/h 59 % 0 in /  0.0 mm
12:10 68.2 °F /  20.1 °C 53.2 °F /  11.8 °C 30.1 in /  1019.9 hPa SE 9.2 mph /  14.8 km/h 9.2 mph /  14.8 km/h 59 % 0 in /  0.0 mm
12:11 68.2 °F /  20.1 °C 53.2 °F /  11.8 °C 30.1 in /  1019.9 hPa ESE 8.1 mph /  13.0 km/h 8.1 mph /  13.0 km/h 59 % 0 in /  0.0 mm
12:16 68.4 °F /  20.2 °C 53.1 °F /  11.7 °C 30.1 in /  1019.9 hPa ENE 5.8 mph /  9.3 km/h 5.8 mph /  9.3 km/h 58 % 0 in /  0.0 mm
12:21 68.9 °F /  20.5 °C 53.4 °F /  11.9 °C 30.1 in /  1019.9 hPa NE 6.9 mph /  11.1 km/h 6.9 mph /  11.1 km/h 58 % 0 in /  0.0 mm
12:26 68.9 °F /  20.5 °C 53.4 °F /  11.9 °C 30.1 in /  1019.9 hPa SSE 4.6 mph /  7.4 km/h 4.6 mph /  7.4 km/h 58 % 0 in /  0.0 mm
12:31 69.4 °F /  20.8 °C 54 °F /  12.2 °C 30.1 in /  1019.9 hPa ENE 4.6 mph /  7.4 km/h 4.6 mph /  7.4 km/h 58 % 0 in /  0.0 mm
12:36 69.6 °F /  20.9 °C 54.1 °F /  12.3 °C 30.1 in /  1018.8 hPa SE 4.6 mph /  7.4 km/h 4.6 mph /  7.4 km/h 58 % 0 in /  0.0 mm
12:41 69.3 °F /  20.7 °C 53.4 °F /  11.9 °C 30.1 in /  1018.8 hPa SSE 5.9 mph /  9.5 km/h 5.9 mph /  9.5 km/h 57 % 0 in /  0.0 mm
12:46 70.9 °F /  21.6 °C 54.9 °F /  12.7 °C 30.1 in /  1018.8 hPa SSW 5.8 mph /  9.3 km/h 5.8 mph /  9.3 km/h 57 % 0 in /  0.0 mm
12:51 69.8 °F /  21.0 °C 52.9 °F /  11.6 °C 30.1 in /  1019.9 hPa ESE 6.9 mph /  11.1 km/h 6.9 mph /  11.1 km/h 55 % 0 in /  0.0 mm
12:56 68.9 °F /  20.5 °C 52.5 °F /  11.4 °C 30.1 in /  1019.9 hPa ESE 5.8 mph /  9.3 km/h 5.8 mph /  9.3 km/h 56 % 0 in /  0.0 mm
13:01 69.4 °F /  20.8 °C 53.1 °F /  11.7 °C 30.1 in /  1019.9 hPa SSE 4 mph /  6.4 km/h 4 mph /  6.4 km/h 56 % 0 in /  0.0 mm
13:06 69.8 °F /  21.0 °C 53.4 °F /  11.9 °C 30.1 in /  1019.9 hPa West 5.8 mph /  9.3 km/h 5.8 mph /  9.3 km/h 56 % 0 in /  0.0 mm
13:11 69.4 °F /  20.8 °C 52.5 °F /  11.4 °C 30.1 in /  1019.9 hPa ENE 3.5 mph /  5.6 km/h 3.5 mph /  5.6 km/h 55 % 0 in /  0.0 mm
13:16 70.3 °F /  21.3 °C 53.4 °F /  11.9 °C 30.1 in /  1019.9 hPa East 5.8 mph /  9.3 km/h 5.8 mph /  9.3 km/h 55 % 0 in /  0.0 mm
13:21 70.3 °F /  21.3 °C 52.3 °F /  11.3 °C 30.1 in /  1019.9 hPa WSW 5.8 mph /  9.3 km/h 5.8 mph /  9.3 km/h 53 % 0 in /  0.0 mm
13:26 70.5 °F /  21.4 °C 52.5 °F /  11.4 °C 30.1 in /  1019.9 hPa ENE 6.4 mph /  10.3 km/h 6.4 mph /  10.3 km/h 53 % 0 in /  0.0 mm
13:31 70.9 °F /  21.6 °C 53.4 °F /  11.9 °C 30.1 in /  1019.9 hPa ESE 9.2 mph /  14.8 km/h 9.2 mph /  14.8 km/h 54 % 0 in /  0.0 mm
13:36 70.9 °F /  21.6 °C 52.9 °F /  11.6 °C 30.1 in /  1019.9 hPa ESE 6.9 mph /  11.1 km/h 6.9 mph /  11.1 km/h 53 % 0 in /  0.0 mm
13:41 71.1 °F /  21.7 °C 52.5 °F /  11.4 °C 30.1 in /  1019.9 hPa SE 8.1 mph /  13.0 km/h 8.1 mph /  13.0 km/h 52 % 0 in /  0.0 mm
13:46 71.6 °F /  22.0 °C 53.6 °F /  12.0 °C 30.1 in /  1019.9 hPa ESE 9.2 mph /  14.8 km/h 9.2 mph /  14.8 km/h 53 % 0 in /  0.0 mm
13:51 72.1 °F /  22.3 °C 53.4 °F /  11.9 °C 30.1 in /  1019.9 hPa ESE 5.8 mph /  9.3 km/h 5.8 mph /  9.3 km/h 52 % 0 in /  0.0 mm
13:56 71.1 °F /  21.7 °C 52.5 °F /  11.4 °C 30.1 in /  1019.9 hPa ESE 8.1 mph /  13.0 km/h 8.1 mph /  13.0 km/h 52 % 0 in /  0.0 mm
14:01 70.3 °F /  21.3 °C 52 °F /  11.1 °C 30.1 in /  1019.9 hPa East 6.9 mph /  11.1 km/h 6.9 mph /  11.1 km/h 52 % 0 in /  0.0 mm
14:02 70.7 °F /  21.5 °C 52.2 °F /  11.2 °C 30.1 in /  1019.9 hPa NNE 5.8 mph /  9.3 km/h 5.8 mph /  9.3 km/h 52 % 0 in /  0.0 mm
14:07 71.1 °F /  21.7 °C 52.5 °F /  11.4 °C 30.1 in /  1018.8 hPa ENE 6.9 mph /  11.1 km/h 6.9 mph /  11.1 km/h 52 % 0 in /  0.0 mm
14:12 71.6 °F /  22.0 °C 53.1 °F /  11.7 °C 30.1 in /  1018.8 hPa ENE 8.1 mph /  13.0 km/h 8.1 mph /  13.0 km/h 52 % 0 in /  0.0 mm
14:17 72.3 °F /  22.4 °C 53.8 °F /  12.1 °C 30.1 in /  1018.8 hPa ESE 5.8 mph /  9.3 km/h 5.8 mph /  9.3 km/h 52 % 0 in /  0.0 mm
14:22 71.8 °F /  22.1 °C 52.7 °F /  11.5 °C 30.1 in /  1019.9 hPa ENE 5.8 mph /  9.3 km/h 5.8 mph /  9.3 km/h 51 % 0 in /  0.0 mm
14:27 72.1 °F /  22.3 °C 53.1 °F /  11.7 °C 30.1 in /  1019.9 hPa East 8.1 mph /  13.0 km/h 8.1 mph /  13.0 km/h 51 % 0 in /  0.0 mm
14:32 72.7 °F /  22.6 °C 53.4 °F /  11.9 °C 30.1 in /  1019.9 hPa NNE 5.9 mph /  9.5 km/h 5.9 mph /  9.5 km/h 51 % 0 in /  0.0 mm
14:37 72.7 °F /  22.6 °C 53.4 °F /  11.9 °C 30.1 in /  1018.8 hPa ESE 4.7 mph /  7.6 km/h 4.7 mph /  7.6 km/h 51 % 0 in /  0.0 mm
14:42 72.1 °F /  22.3 °C 52.5 °F /  11.4 °C 30.1 in /  1018.8 hPa South 8.1 mph /  13.0 km/h 8.1 mph /  13.0 km/h 50 % 0 in /  0.0 mm
14:47 72.5 °F /  22.5 °C 52.9 °F /  11.6 °C 30.1 in /  1018.8 hPa SE 9.2 mph /  14.8 km/h 9.2 mph /  14.8 km/h 50 % 0 in /  0.0 mm
14:52 71.8 °F /  22.1 °C 51.6 °F /  10.9 °C 30.1 in /  1018.8 hPa SSE 8.1 mph /  13.0 km/h 8.1 mph /  13.0 km/h 49 % 0 in /  0.0 mm
14:57 72.7 °F /  22.6 °C 52.3 °F /  11.3 °C 30.1 in /  1018.8 hPa SW 5.8 mph /  9.3 km/h 5.8 mph /  9.3 km/h 49 % 0 in /  0.0 mm
15:02 73.2 °F /  22.9 °C 52.9 °F /  11.6 °C 30.1 in /  1018.8 hPa East 4 mph /  6.4 km/h 4 mph /  6.4 km/h 49 % 0 in /  0.0 mm
15:03 73.2 °F /  22.9 °C 52.9 °F /  11.6 °C 30.1 in /  1018.8 hPa East 4 mph /  6.4 km/h 4 mph /  6.4 km/h 49 % 0 in /  0.0 mm
15:08 72.7 °F /  22.6 °C 52.3 °F /  11.3 °C 30.1 in /  1018.8 hPa ESE 8.1 mph /  13.0 km/h 8.1 mph /  13.0 km/h 49 % 0 in /  0.0 mm
15:13 71.2 °F /  21.8 °C 51.1 °F /  10.6 °C 30.1 in /  1018.8 hPa ESE 5.9 mph /  9.5 km/h 5.9 mph /  9.5 km/h 49 % 0 in /  0.0 mm
15:18 72.1 °F /  22.3 °C 52.5 °F /  11.4 °C 30.1 in /  1018.8 hPa ESE 5.9 mph /  9.5 km/h 5.9 mph /  9.5 km/h 50 % 0 in /  0.0 mm
15:23 72.1 °F /  22.3 °C 52 °F /  11.1 °C 30.1 in /  1018.8 hPa SE 6.2 mph /  10.0 km/h 6.2 mph /  10.0 km/h 49 % 0 in /  0.0 mm
15:28 72.1 °F /  22.3 °C 52 °F /  11.1 °C 30.1 in /  1018.8 hPa ENE 8.1 mph /  13.0 km/h 8.1 mph /  13.0 km/h 49 % 0 in /  0.0 mm
15:33 72.1 °F /  22.3 °C 52 °F /  11.1 °C 30.1 in /  1018.8 hPa ESE 6.9 mph /  11.1 km/h 6.9 mph /  11.1 km/h 49 % 0 in /  0.0 mm
15:38 72.7 °F /  22.6 °C 52.3 °F /  11.3 °C 30.1 in /  1017.8 hPa ENE 8.1 mph /  13.0 km/h 8.1 mph /  13.0 km/h 49 % 0 in /  0.0 mm
15:43 72.9 °F /  22.7 °C 52.5 °F /  11.4 °C 30.1 in /  1017.8 hPa South 4.6 mph /  7.4 km/h 4.6 mph /  7.4 km/h 49 % 0 in /  0.0 mm
15:48 72.7 °F /  22.6 °C 52.3 °F /  11.3 °C 30.1 in /  1017.8 hPa ESE 10.4 mph /  16.7 km/h 10.4 mph /  16.7 km/h 49 % 0 in /  0.0 mm
15:53 72 °F /  22.2 °C 51.3 °F /  10.7 °C 30.1 in /  1018.8 hPa SE 5.8 mph /  9.3 km/h 6.4 mph /  10.3 km/h 48 % 0 in /  0.0 mm
15:58 72.1 °F /  22.3 °C 52 °F /  11.1 °C 30.1 in /  1018.8 hPa ESE 8.1 mph /  13.0 km/h 8.1 mph /  13.0 km/h 49 % 0 in /  0.0 mm
16:03 72.5 °F /  22.5 °C 52.2 °F /  11.2 °C 30.1 in /  1018.8 hPa ESE 8.1 mph /  13.0 km/h 8.1 mph /  13.0 km/h 49 % 0 in /  0.0 mm
16:08 72.7 °F /  22.6 °C 52.3 °F /  11.3 °C 30.1 in /  1017.8 hPa East 7.6 mph /  12.2 km/h 7.6 mph /  12.2 km/h 49 % 0 in /  0.0 mm
16:13 72.7 °F /  22.6 °C 52.3 °F /  11.3 °C 30.1 in /  1017.8 hPa ENE 9 mph /  14.5 km/h 9 mph /  14.5 km/h 49 % 0 in /  0.0 mm
16:18 72.5 °F /  22.5 °C 51.6 °F /  10.9 °C 30.1 in /  1017.8 hPa ESE 8.1 mph /  13.0 km/h 8.1 mph /  13.0 km/h 48 % 0 in /  0.0 mm
16:23 72.3 °F /  22.4 °C 51.4 °F /  10.8 °C 30.1 in /  1017.8 hPa ENE 8.1 mph /  13.0 km/h 8.1 mph /  13.0 km/h 48 % 0 in /  0.0 mm
16:28 72.5 °F /  22.5 °C 51.6 °F /  10.9 °C 30.1 in /  1017.8 hPa ESE 7.6 mph /  12.2 km/h 7.6 mph /  12.2 km/h 48 % 0 in /  0.0 mm
16:33 72.1 °F /  22.3 °C 52 °F /  11.1 °C 30.1 in /  1017.8 hPa East 8.1 mph /  13.0 km/h 8.1 mph /  13.0 km/h 49 % 0 in /  0.0 mm
16:38 72 °F /  22.2 °C 51.8 °F /  11.0 °C 30.1 in /  1017.8 hPa ESE 6.9 mph /  11.1 km/h 6.9 mph /  11.1 km/h 49 % 0 in /  0.0 mm
16:43 71.8 °F /  22.1 °C 51.6 °F /  10.9 °C 30.1 in /  1017.8 hPa ENE 5.6 mph /  9.0 km/h 5.6 mph /  9.0 km/h 49 % 0 in /  0.0 mm
16:48 72.5 °F /  22.5 °C 52.2 °F /  11.2 °C 30.1 in /  1017.8 hPa ENE 6.4 mph /  10.3 km/h 6.4 mph /  10.3 km/h 49 % 0 in /  0.0 mm
16:53 71.8 °F /  22.1 °C 51.1 °F /  10.6 °C 30 in /  1016.8 hPa SE 10.7 mph /  17.2 km/h 10.7 mph /  17.2 km/h 48 % 0 in /  0.0 mm
16:58 71.8 °F /  22.1 °C 51.1 °F /  10.6 °C 30 in /  1016.8 hPa ESE 8.1 mph /  13.0 km/h 8.1 mph /  13.0 km/h 48 % 0 in /  0.0 mm
17:03 71.6 °F /  22.0 °C 50.9 °F /  10.5 °C 30 in /  1016.8 hPa SE 10.4 mph /  16.7 km/h 10.4 mph /  16.7 km/h 48 % 0 in /  0.0 mm
17:08 71.8 °F /  22.1 °C 51.1 °F /  10.6 °C 30.1 in /  1017.8 hPa ESE 8.1 mph /  13.0 km/h 8.1 mph /  13.0 km/h 48 % 0 in /  0.0 mm
17:13 72 °F /  22.2 °C 51.3 °F /  10.7 °C 30.1 in /  1017.8 hPa SSE 6 mph /  9.7 km/h 6 mph /  9.7 km/h 48 % 0 in /  0.0 mm
17:18 72.3 °F /  22.4 °C 51.1 °F /  10.6 °C 30.1 in /  1017.8 hPa ESE 8.1 mph /  13.0 km/h 8.1 mph /  13.0 km/h 47 % 0 in /  0.0 mm
17:23 72 °F /  22.2 °C 50.5 °F /  10.3 °C 30.1 in /  1018.8 hPa SW 6.9 mph /  11.1 km/h 6.9 mph /  11.1 km/h 47 % 0 in /  0.0 mm
17:28 71.6 °F /  22.0 °C 50.4 °F /  10.2 °C 30.1 in /  1018.8 hPa SSE 3.5 mph /  5.6 km/h 3.5 mph /  5.6 km/h 47 % 0 in /  0.0 mm
17:33 72 °F /  22.2 °C 50.5 °F /  10.3 °C 30.1 in /  1018.8 hPa ESE 6 mph /  9.7 km/h 6 mph /  9.7 km/h 47 % 0 in /  0.0 mm
17:38 71.8 °F /  22.1 °C 49.8 °F /  9.9 °C 30.1 in /  1017.8 hPa ESE 8.5 mph /  13.7 km/h 8.5 mph /  13.7 km/h 46 % 0 in /  0.0 mm
17:43 71.4 °F /  21.9 °C 50.2 °F /  10.1 °C 30.1 in /  1017.8 hPa SE 9.2 mph /  14.8 km/h 9.2 mph /  14.8 km/h 47 % 0 in /  0.0 mm
17:48 71.6 °F /  22.0 °C 49.6 °F /  9.8 °C 30.1 in /  1017.8 hPa ESE 5.8 mph /  9.3 km/h 5.8 mph /  9.3 km/h 46 % 0 in /  0.0 mm
17:53 71.4 °F /  21.9 °C 49.6 °F /  9.8 °C 30.1 in /  1017.8 hPa ESE 8.1 mph /  13.0 km/h 8.1 mph /  13.0 km/h 46 % 0 in /  0.0 mm
17:58 71.2 °F /  21.8 °C 49.5 °F /  9.7 °C 30.1 in /  1017.8 hPa ENE 8.1 mph /  13.0 km/h 8.1 mph /  13.0 km/h 46 % 0 in /  0.0 mm
18:03 71.1 °F /  21.7 °C 49.3 °F /  9.6 °C 30.1 in /  1017.8 hPa East 6.9 mph /  11.1 km/h 6.9 mph /  11.1 km/h 46 % 0 in /  0.0 mm
18:08 71.1 °F /  21.7 °C 48.6 °F /  9.2 °C 30.1 in /  1017.8 hPa East 5.8 mph /  9.3 km/h 6 mph /  9.7 km/h 45 % 0 in /  0.0 mm
18:13 70.9 °F /  21.6 °C 48.6 °F /  9.2 °C 30.1 in /  1017.8 hPa ESE 6.2 mph /  10.0 km/h 6.2 mph /  10.0 km/h 45 % 0 in /  0.0 mm
18:18 70.7 °F /  21.5 °C 48.4 °F /  9.1 °C 30.1 in /  1017.8 hPa East 7.1 mph /  11.4 km/h 7.1 mph /  11.4 km/h 45 % 0 in /  0.0 mm
18:23 70.5 °F /  21.4 °C 47.5 °F /  8.6 °C 30 in /  1016.8 hPa SE 8.1 mph /  13.0 km/h 8.1 mph /  13.0 km/h 44 % 0 in /  0.0 mm
18:28 70.5 °F /  21.4 °C 47.5 °F /  8.6 °C 30 in /  1016.8 hPa SE 5.8 mph /  9.3 km/h 5.8 mph /  9.3 km/h 44 % 0 in /  0.0 mm
18:33 70.5 °F /  21.4 °C 47.5 °F /  8.6 °C 30 in /  1016.8 hPa SE 6.9 mph /  11.1 km/h 6.9 mph /  11.1 km/h 44 % 0 in /  0.0 mm
18:38 70.3 °F /  21.3 °C 47.5 °F /  8.6 °C 30 in /  1016.8 hPa East 5.9 mph /  9.5 km/h 5.9 mph /  9.5 km/h 44 % 0 in /  0.0 mm
18:43 70.2 °F /  21.2 °C 47.1 °F /  8.4 °C 30 in /  1016.8 hPa SE 5.6 mph /  9.0 km/h 5.6 mph /  9.0 km/h 44 % 0 in /  0.0 mm
18:48 70 °F /  21.1 °C 47.1 °F /  8.4 °C 30 in /  1016.8 hPa ESE 5.8 mph /  9.3 km/h 5.8 mph /  9.3 km/h 44 % 0 in /  0.0 mm
18:53 69.8 °F /  21.0 °C 46.9 °F /  8.3 °C 30.1 in /  1017.8 hPa East 9.2 mph /  14.8 km/h 9.2 mph /  14.8 km/h 44 % 0 in /  0.0 mm
18:58 69.6 °F /  20.9 °C 47.3 °F /  8.5 °C 30.1 in /  1017.8 hPa ESE 6.9 mph /  11.1 km/h 6.9 mph /  11.1 km/h 45 % 0 in /  0.0 mm
19:03 69.4 °F /  20.8 °C 47.1 °F /  8.4 °C 30.1 in /  1017.8 hPa ESE 4.6 mph /  7.4 km/h 4.6 mph /  7.4 km/h 45 % 0 in /  0.0 mm
19:08 69.3 °F /  20.7 °C 46.9 °F /  8.3 °C 30.1 in /  1017.8 hPa East 4.3 mph /  6.9 km/h 4.3 mph /  6.9 km/h 45 % 0 in /  0.0 mm
19:13 69.1 °F /  20.6 °C 46.8 °F /  8.2 °C 30.1 in /  1017.8 hPa ESE 4.6 mph /  7.4 km/h 4.6 mph /  7.4 km/h 45 % 0 in /  0.0 mm
19:18 68.9 °F /  20.5 °C 46.8 °F /  8.2 °C 30.1 in /  1017.8 hPa ESE 3.3 mph /  5.3 km/h 3.3 mph /  5.3 km/h 45 % 0 in /  0.0 mm
19:20 60.3 °F /  15.7 °C 48 °F /  8.9 °C 30.1 in /  1017.8 hPa NNE 1 mph /  1.6 km/h 1 mph /  1.6 km/h 64 % 0 in /  0.0 mm
19:23 68.9 °F /  20.5 °C 46 °F /  7.8 °C 30.1 in /  1017.8 hPa ESE 4.6 mph /  7.4 km/h 4.6 mph /  7.4 km/h 44 % 0 in /  0.0 mm
19:28 68.5 °F /  20.3 °C 45.9 °F /  7.7 °C 30.1 in /  1017.8 hPa ESE 5.8 mph /  9.3 km/h 5.8 mph /  9.3 km/h 44 % 0 in /  0.0 mm
19:30 60.4 °F /  15.8 °C 48.2 °F /  9.0 °C 30.1 in /  1018.8 hPa Calm   2 mph /  3.2 km/h 64 % 0 in /  0.0 mm
19:33 68.4 °F /  20.2 °C 45.7 °F /  7.6 °C 30.1 in /  1017.8 hPa ESE 4.6 mph /  7.4 km/h 4.6 mph /  7.4 km/h 44 % 0 in /  0.0 mm
19:38 68.2 °F /  20.1 °C 45.3 °F /  7.4 °C 30.1 in /  1017.8 hPa ESE 2.3 mph /  3.7 km/h 2.3 mph /  3.7 km/h 44 % 0 in /  0.0 mm
19:40 60.1 °F /  15.6 °C 48.4 °F /  9.1 °C 30.1 in /  1017.8 hPa Calm   1 mph /  1.6 km/h 65 % 0 in /  0.0 mm
19:43 68 °F /  20.0 °C 45.3 °F /  7.4 °C 30.1 in /  1017.8 hPa SE 5.8 mph /  9.3 km/h 5.8 mph /  9.3 km/h 44 % 0 in /  0.0 mm
19:48 67.8 °F /  19.9 °C 45.1 °F /  7.3 °C 30.1 in /  1018.8 hPa NNE 2.6 mph /  4.2 km/h 2.6 mph /  4.2 km/h 44 % 0 in /  0.0 mm
19:50 59.5 °F /  15.3 °C 47.3 °F /  8.5 °C 30.1 in /  1017.8 hPa NW 1 mph /  1.6 km/h 1 mph /  1.6 km/h 64 % 0 in /  0.0 mm
19:53 67.6 °F /  19.8 °C 45 °F /  7.2 °C 30.1 in /  1018.8 hPa East 4.6 mph /  7.4 km/h 4.6 mph /  7.4 km/h 44 % 0 in /  0.0 mm
19:58 67.3 °F /  19.6 °C 44.6 °F /  7.0 °C 30.1 in /  1018.8 hPa East 3.5 mph /  5.6 km/h 3.5 mph /  5.6 km/h 44 % 0 in /  0.0 mm
20:00 59.4 °F /  15.2 °C 47.1 °F /  8.4 °C 30.1 in /  1017.8 hPa Calm     64 % 0 in /  0.0 mm
20:03 67.1 °F /  19.5 °C 44.4 °F /  6.9 °C 30.1 in /  1017.8 hPa East 4.6 mph /  7.4 km/h 4.6 mph /  7.4 km/h 44 % 0 in /  0.0 mm
20:08 67.1 °F /  19.5 °C 44.4 °F /  6.9 °C 30.1 in /  1017.8 hPa ENE 3.5 mph /  5.6 km/h 3.5 mph /  5.6 km/h 44 % 0 in /  0.0 mm
20:10 59.2 °F /  15.1 °C 47.5 °F /  8.6 °C 30.1 in /  1017.8 hPa NNE 1 mph /  1.6 km/h 2 mph /  3.2 km/h 65 % 0 in /  0.0 mm
20:13 66.9 °F /  19.4 °C 44.2 °F /  6.8 °C 30.1 in /  1017.8 hPa NE 1.4 mph /  2.3 km/h 1.4 mph /  2.3 km/h 44 % 0 in /  0.0 mm
20:18 66.7 °F /  19.3 °C 44.1 °F /  6.7 °C 30.1 in /  1017.8 hPa NNE 1.2 mph /  1.9 km/h 1.2 mph /  1.9 km/h 44 % 0 in /  0.0 mm
20:20 58.5 °F /  14.7 °C 46.8 °F /  8.2 °C 30.1 in /  1017.8 hPa NE 1 mph /  1.6 km/h 2 mph /  3.2 km/h 65 % 0 in /  0.0 mm
20:23 66.6 °F /  19.2 °C 44.1 °F /  6.7 °C 30.1 in /  1017.8 hPa Calm     44 % 0 in /  0.0 mm
20:28 66.2 °F /  19.0 °C 44.2 °F /  6.8 °C 30.1 in /  1017.8 hPa West 1.2 mph /  1.9 km/h 1.2 mph /  1.9 km/h 45 % 0 in /  0.0 mm
20:30 58.3 °F /  14.6 °C 46.9 °F /  8.3 °C 30.1 in /  1017.8 hPa Calm   1 mph /  1.6 km/h 66 % 0 in /  0.0 mm
20:33 65.8 °F /  18.8 °C 44.4 °F /  6.9 °C 30.1 in /  1017.8 hPa Calm     46 % 0 in /  0.0 mm
20:38 66 °F /  18.9 °C 44.6 °F /  7.0 °C 30.1 in /  1017.8 hPa Calm     46 % 0 in /  0.0 mm
20:40 58.1 °F /  14.5 °C 46.8 °F /  8.2 °C 30.1 in /  1017.8 hPa Calm     66 % 0 in /  0.0 mm
20:48 65.5 °F /  18.6 °C 44.8 °F /  7.1 °C 30.1 in /  1017.8 hPa NE 2.3 mph /  3.7 km/h 2.3 mph /  3.7 km/h 47 % 0 in /  0.0 mm
20:50 57.6 °F /  14.2 °C 46.8 °F /  8.2 °C 30.1 in /  1017.8 hPa Calm     67 % 0 in /  0.0 mm
20:53 65.7 °F /  18.7 °C 45 °F /  7.2 °C 30.1 in /  1017.8 hPa Calm     47 % 0 in /  0.0 mm
20:58 65.5 °F /  18.6 °C 45.3 °F /  7.4 °C 30.1 in /  1017.8 hPa SSW 1.2 mph /  1.9 km/h   48 % 0 in /  0.0 mm
21:00 57.2 °F /  14.0 °C 46.8 °F /  8.2 °C 30.1 in /  1017.8 hPa Calm     68 % 0 in /  0.0 mm
21:03 65.3 °F /  18.5 °C 45.1 °F /  7.3 °C 30.1 in /  1017.8 hPa Calm     48 % 0 in /  0.0 mm
21:08 65.1 °F /  18.4 °C 45.5 °F /  7.5 °C 30.1 in /  1017.8 hPa NE 1.2 mph /  1.9 km/h 1.2 mph /  1.9 km/h 49 % 0 in /  0.0 mm
21:10 57 °F /  13.9 °C 46.9 °F /  8.3 °C 30.1 in /  1017.8 hPa Calm     69 % 0 in /  0.0 mm
21:13 64.9 °F /  18.3 °C 45.3 °F /  7.4 °C 30.1 in /  1017.8 hPa WNW 1.4 mph /  2.3 km/h   49 % 0 in /  0.0 mm
21:18 64.8 °F /  18.2 °C 45.1 °F /  7.3 °C 30.1 in /  1017.8 hPa West 2.3 mph /  3.7 km/h 2.4 mph /  3.9 km/h 49 % 0 in /  0.0 mm
21:20 56.8 °F /  13.8 °C 46.8 °F /  8.2 °C 30.1 in /  1017.8 hPa Calm     69 % 0 in /  0.0 mm
21:23 64.8 °F /  18.2 °C 45.1 °F /  7.3 °C 30.1 in /  1017.8 hPa NW 1.2 mph /  1.9 km/h 1.2 mph /  1.9 km/h 49 % 0 in /  0.0 mm
21:28 64.8 °F /  18.2 °C 45.1 °F /  7.3 °C 30.1 in /  1017.8 hPa Calm     49 % 0 in /  0.0 mm
21:30 56.7 °F /  13.7 °C 46.9 °F /  8.3 °C 30.1 in /  1017.8 hPa Calm     70 % 0 in /  0.0 mm
21:33 64.8 °F /  18.2 °C 45.1 °F /  7.3 °C 30.1 in /  1017.8 hPa Calm     49 % 0 in /  0.0 mm
21:38 64.6 °F /  18.1 °C 45.5 °F /  7.5 °C 30.1 in /  1017.8 hPa Calm     50 % 0 in /  0.0 mm
21:40 56.5 °F /  13.6 °C 46.8 °F /  8.2 °C 30.1 in /  1017.8 hPa Calm     70 % 0 in /  0.0 mm
21:43 64.4 °F /  18.0 °C 45.3 °F /  7.4 °C 30.1 in /  1017.8 hPa NW 2.3 mph /  3.7 km/h 2.3 mph /  3.7 km/h 50 % 0 in /  0.0 mm
21:48 64.2 °F /  17.9 °C 45.1 °F /  7.3 °C 30.1 in /  1017.8 hPa Calm     50 % 0 in /  0.0 mm
21:50 56.3 °F /  13.5 °C 46.9 °F /  8.3 °C 30.1 in /  1017.8 hPa Calm     71 % 0 in /  0.0 mm
21:53 64.2 °F /  17.9 °C 45.7 °F /  7.6 °C 30.1 in /  1017.8 hPa Calm     51 % 0 in /  0.0 mm
21:58 64 °F /  17.8 °C 46 °F /  7.8 °C 30.1 in /  1017.8 hPa Calm     52 % 0 in /  0.0 mm
22:00 56.1 °F /  13.4 °C 46.8 °F /  8.2 °C 30.1 in /  1017.8 hPa Calm     71 % 0 in /  0.0 mm
22:03 64 °F /  17.8 °C 46 °F /  7.8 °C 30.1 in /  1017.8 hPa Calm     52 % 0 in /  0.0 mm
22:08 63.9 °F /  17.7 °C 46.4 °F /  8.0 °C 30.1 in /  1017.8 hPa Calm     53 % 0 in /  0.0 mm
22:10 56.1 °F /  13.4 °C 46.8 °F /  8.2 °C 30.1 in /  1017.8 hPa Calm   1 mph /  1.6 km/h 71 % 0 in /  0.0 mm
22:13 63.9 °F /  17.7 °C 47.5 °F /  8.6 °C 30.1 in /  1017.8 hPa Calm     55 % 0 in /  0.0 mm
22:18 63.5 °F /  17.5 °C 46.9 °F /  8.3 °C 30.1 in /  1017.8 hPa Calm     55 % 0 in /  0.0 mm
22:20 56.1 °F /  13.4 °C 47.1 °F /  8.4 °C 30.1 in /  1017.8 hPa Calm     72 % 0 in /  0.0 mm
22:23 62.8 °F /  17.1 °C 45.9 °F /  7.7 °C 30.1 in /  1017.8 hPa Calm     54 % 0 in /  0.0 mm
22:28 62.8 °F /  17.1 °C 45.9 °F /  7.7 °C 30.1 in /  1017.8 hPa Calm     54 % 0 in /  0.0 mm
22:30 56.1 °F /  13.4 °C 47.1 °F /  8.4 °C 30.1 in /  1017.8 hPa Calm     72 % 0 in /  0.0 mm
22:33 63 °F /  17.2 °C 46.6 °F /  8.1 °C 30.1 in /  1017.8 hPa Calm     55 % 0 in /  0.0 mm
22:38 62.8 °F /  17.1 °C 46.4 °F /  8.0 °C 30.1 in /  1017.8 hPa Calm     55 % 0 in /  0.0 mm
22:40 56.1 °F /  13.4 °C 47.1 °F /  8.4 °C 30.1 in /  1017.8 hPa Calm     72 % 0 in /  0.0 mm
22:43 62.8 °F /  17.1 °C 46.8 °F /  8.2 °C 30.1 in /  1017.8 hPa Calm     56 % 0 in /  0.0 mm
22:48 62.6 °F /  17.0 °C 47.1 °F /  8.4 °C 30.1 in /  1017.8 hPa Calm     57 % 0 in /  0.0 mm
22:50 56.1 °F /  13.4 °C 47.1 °F /  8.4 °C 30.1 in /  1017.8 hPa Calm   1 mph /  1.6 km/h 72 % 0 in /  0.0 mm
22:53 62.4 °F /  16.9 °C 47.8 °F /  8.8 °C 30.1 in /  1017.8 hPa Calm     59 % 0 in /  0.0 mm
22:58 62.1 °F /  16.7 °C 47.1 °F /  8.4 °C 30.1 in /  1017.8 hPa Calm     58 % 0 in /  0.0 mm
23:00 55.9 °F /  13.3 °C 47.5 °F /  8.6 °C 30.1 in /  1017.8 hPa SSW 1 mph /  1.6 km/h 1 mph /  1.6 km/h 73 % 0 in /  0.0 mm
23:03 62.1 °F /  16.7 °C 47.7 °F /  8.7 °C 30.1 in /  1017.8 hPa WNW 1.6 mph /  2.6 km/h   59 % 0 in /  0.0 mm
23:08 61.9 °F /  16.6 °C 47.8 °F /  8.8 °C 30.1 in /  1017.8 hPa Calm     60 % 0 in /  0.0 mm
23:10 55.9 °F /  13.3 °C 47.5 °F /  8.6 °C 30.1 in /  1017.8 hPa Calm     73 % 0 in /  0.0 mm
23:13 61.7 °F /  16.5 °C 47.7 °F /  8.7 °C 30.1 in /  1017.8 hPa Calm     60 % 0 in /  0.0 mm
23:18 61.7 °F /  16.5 °C 48 °F /  8.9 °C 30.1 in /  1018.8 hPa Calm     61 % 0 in /  0.0 mm
23:20 56.1 °F /  13.4 °C 47.7 °F /  8.7 °C 30.1 in /  1017.8 hPa Calm     73 % 0 in /  0.0 mm
23:23 61.7 °F /  16.5 °C 48.6 °F /  9.2 °C 30.1 in /  1018.8 hPa Calm     62 % 0 in /  0.0 mm
23:28 61.7 °F /  16.5 °C 48.6 °F /  9.2 °C 30.1 in /  1018.8 hPa Calm     62 % 0 in /  0.0 mm
23:30 56.3 °F /  13.5 °C 48 °F /  8.9 °C 30.1 in /  1017.8 hPa Calm     74 % 0 in /  0.0 mm
23:33 61.3 °F /  16.3 °C 48.2 °F /  9.0 °C 30.1 in /  1018.8 hPa NNE 1.2 mph /  1.9 km/h 1.2 mph /  1.9 km/h 62 % 0 in /  0.0 mm
23:38 61.2 °F /  16.2 °C 47.7 °F /  8.7 °C 30.1 in /  1018.8 hPa ESE 2.3 mph /  3.7 km/h 2.3 mph /  3.7 km/h 61 % 0 in /  0.0 mm
23:40 56.3 °F /  13.5 °C 47.8 °F /  8.8 °C 30.1 in /  1017.8 hPa Calm   2 mph /  3.2 km/h 73 % 0 in /  0.0 mm
23:43 61.2 °F /  16.2 °C 48 °F /  8.9 °C 30.1 in /  1018.8 hPa Calm     62 % 0 in /  0.0 mm
23:48 60.8 °F /  16.0 °C 47.3 °F /  8.5 °C 30.1 in /  1017.8 hPa NE 1.2 mph /  1.9 km/h 1.2 mph /  1.9 km/h 61 % 0 in /  0.0 mm
23:50 56.3 °F /  13.5 °C 48 °F /  8.9 °C 30.1 in /  1017.8 hPa Calm   1 mph /  1.6 km/h 74 % 0 in /  0.0 mm
23:53 60.6 °F /  15.9 °C 47.1 °F /  8.4 °C 30.1 in /  1017.8 hPa Calm     61 % 0 in /  0.0 mm
23:58 60.4 °F /  15.8 °C 46.9 °F /  8.3 °C 30.1 in /  1017.8 hPa Calm     61 % 0 in /  0.0 mm
Meteo Sesrovires
Elogis d' Weather Underground - 3.75 mb

Guio original per  Jim McMurry - jmcmurry@mwt.net Adaptat per a la plantilla per  Wim van der Kuil - Leuven-Template.eu

Trobareu la nostra informacio del temps tambe a:

Weather Underground

AWEKAS